Kilkenny, Ireland

10:26 AM IST on July 28, 2017 (GMT +0100)
Kilkenny | | Change Station

Elev 160 ft 52.66 °N, 7.25 °W | Updated 4 minutes ago

Mostly Cloudy
Mostly Cloudy
60.8 °F
Feels Like 60.8 °F
N
6.0
Wind Variable Wind from SW
Gusts 13.0 mph

Today
High -- | Low -- °F
--% Chance of Precip.
Yesterday
High -- | Low -- °F
Precip. -- in
Pressure 29.62 in
Visibility 6.2 miles
Clouds Scattered Clouds 1900 ft
Mostly Cloudy 4100 ft
Dew Point 34 °F
Humidity 58%
Rainfall 0.00 in
Snow Depth Not available.
5:42 AM 9:27 PM
Waxing Crescent, 28% visible
METAR EIWF 280830Z 24011KT 190V290 9999 SCT019 BKN041 14/12 Q1003
Pressure 29.62 in
Visibility 6.2 miles
Clouds Scattered Clouds 1900 ft
Mostly Cloudy 4100 ft
Dew Point 34 °F
Humidity 58%
Rainfall 0.00 in
Snow Depth Not available.
5:42 AM 9:27 PM
Waxing Crescent, 28% visible
METAR EIWF 280830Z 24011KT 190V290 9999 SCT019 BKN041 14/12 Q1003

Get Severe Weather Alerts

Thanks for signing up!

Be on the lookout for a verification email in your inbox.

You'll start receiving the daily forecast at 6 AM.

×

10-Day Weather Forecast

×

Almanac

Astronomy

Jul. 28, 2017 Rise Set
Actual Time
Civil Twilight
Nautical Twilight
Astronomical Twilight
Moon
Length of Visible Light
Length of Day
Tomorrow will be .
, % of the Moon is Illuminated

Today's Extremes

Country Highs Country Lows

Community

WunderPhotos

Category 6

Welcome to Category 6. This is the collective home for Weather Underground's featured writeups by Dr. Jeff Masters (right), Bob Henson (left), Chris Burt, and other regular contributors.

Nearby

Air Quality

  Air Quality AQ Index Pollutant
Not available.

Snow Depth

Station Depth Elevation

Earthquake Activity

City Distance Mag. Time & Date
Minimum magnitude displayed is 2.5.

Coastal Water Temperatures

Place Temperature

Stations

Nearby Weather Stations

Station Location Temp. Windchill Dew Point Humidity Wind Precip. Elev Updated Type